Time;durP1;ratioP1;P1;durP2;ratioP2;P2;SDS_P1;SDS_P2;PMS_P1;PMS_P2;Temp;Humidity;BMP_temperature;BMP_pressure;BME280_temperature;BME280_humidity;BME280_pressure;Samples;Min_cycle;Max_cycle;Signal;HPM_P1;HPM_P2
2022/05/07 00:00:32;;;;;;;49.65;35.72;;;11.30;99.90;;;;;;5092629;28;20055;-75
2022/05/07 00:02:58;;;;;;;47.72;35.50;;;11.30;99.90;;;;;;5074946;28;20551;-73
2022/05/07 00:05:24;;;;;;;49.15;35.88;;;11.40;99.90;;;;;;5074712;28;20244;-75
2022/05/07 00:07:51;;;;;;;46.50;35.17;;;11.40;99.90;;;;;;5092683;28;20048;-73
2022/05/07 00:10:17;;;;;;;48.20;35.75;;;11.40;99.90;;;;;;5092054;28;20059;-74
2022/05/07 00:12:43;;;;;;;52.08;37.20;;;11.40;99.90;;;;;;5074798;28;20457;-74
2022/05/07 00:15:09;;;;;;;52.63;37.28;;;11.40;99.90;;;;;;5092178;28;20052;-73
2022/05/07 00:20:20;;;;;;;49.03;36.70;;;11.40;99.90;;;;;;5074147;28;20158;-73
2022/05/07 00:22:46;;;;;;;49.08;35.53;;;11.40;99.90;;;;;;5092100;28;20047;-74
2022/05/07 00:25:12;;;;;;;50.88;36.90;;;11.40;99.90;;;;;;5074567;28;20044;-74
2022/05/07 00:27:38;;;;;;;52.03;37.85;;;11.40;99.90;;;;;;5074675;28;20445;-74
2022/05/07 00:30:05;;;;;;;51.33;36.08;;;11.40;99.90;;;;;;5092314;28;20055;-74
2022/05/07 00:32:31;;;;;;;43.72;34.33;;;11.40;99.90;;;;;;5092259;28;20048;-76
2022/05/07 00:34:57;;;;;;;50.83;37.80;;;11.40;99.90;;;;;;5092264;28;20468;-74
2022/05/07 00:37:23;;;;;;;43.78;33.67;;;11.40;99.90;;;;;;5092197;28;20060;-74
2022/05/07 00:39:50;;;;;;;50.72;34.95;;;11.40;99.90;;;;;;5093848;28;20048;-74
2022/05/07 00:42:15;;;;;;;48.65;35.08;;;11.40;99.90;;;;;;5095892;28;20044;-73
2022/05/07 00:44:41;;;;;;;45.13;32.63;;;11.40;99.90;;;;;;5078163;28;20103;-73
2022/05/07 00:47:26;;;;;;;39.03;31.15;;;11.50;99.90;;;;;;5095849;28;20138;-75
2022/05/07 00:51:33;;;;;;;43.00;31.70;;;11.50;99.90;;;;;;5095979;28;20047;-74
2022/05/07 00:52:44;;;;;;;41.17;31.27;;;11.40;99.90;;;;;;5095792;28;20040;-74
2022/05/07 00:55:11;;;;;;;41.13;32.15;;;11.50;99.90;;;;;;5095356;28;20083;-73
2022/05/07 00:57:37;;;;;;;40.80;31.40;;;11.50;99.90;;;;;;5095648;28;20177;-74
2022/05/07 01:00:05;;;;;;;41.30;33.17;;;11.60;99.90;;;;;;5095810;28;20048;-73
2022/05/07 01:02:31;;;;;;;43.03;31.85;;;11.60;99.90;;;;;;5095697;28;20086;-73
2022/05/07 01:04:57;;;;;;;44.95;32.67;;;11.60;99.90;;;;;;5095792;28;20067;-74
2022/05/07 01:07:23;;;;;;;38.85;30.50;;;11.60;99.90;;;;;;5095738;28;20036;-74
2022/05/07 01:09:49;;;;;;;39.25;31.40;;;11.60;99.90;;;;;;5077931;28;20127;-74
2022/05/07 01:12:16;;;;;;;38.92;30.00;;;11.60;99.90;;;;;;5095450;28;20071;-72
2022/05/07 01:14:42;;;;;;;37.47;30.23;;;11.70;99.90;;;;;;5095486;28;20123;-73
2022/05/07 01:17:09;;;;;;;38.85;29.70;;;11.70;99.90;;;;;;5095372;28;20090;-75
2022/05/07 01:19:35;;;;;;;36.90;29.77;;;11.70;99.90;;;;;;5095209;28;20054;-73
2022/05/07 01:22:04;;;;;;;37.40;29.25;;;11.70;99.90;;;;;;5095562;28;20052;-73
2022/05/07 01:24:30;;;;;;;36.00;30.13;;;11.70;99.90;;;;;;5077290;28;20064;-73
2022/05/07 01:26:56;;;;;;;39.60;30.75;;;11.70;99.90;;;;;;5094783;28;20083;-73
2022/05/07 01:29:22;;;;;;;39.95;30.25;;;11.70;99.90;;;;;;5095261;28;20098;-74
2022/05/07 01:31:48;;;;;;;37.03;29.55;;;11.70;99.90;;;;;;5095040;28;20075;-75
2022/05/07 01:34:13;;;;;;;34.58;29.00;;;11.70;99.90;;;;;;5095362;28;20356;-74
2022/05/07 01:36:40;;;;;;;37.42;28.50;;;11.70;99.90;;;;;;5094949;28;20139;-73
2022/05/07 01:39:05;;;;;;;36.67;29.50;;;11.70;99.90;;;;;;5077341;28;20448;-73
2022/05/07 01:41:31;;;;;;;38.35;29.92;;;11.70;99.90;;;;;;5077220;28;20127;-73
2022/05/07 01:43:58;;;;;;;38.95;30.23;;;11.70;99.90;;;;;;5094776;28;20048;-74
2022/05/07 01:49:08;;;;;;;37.65;29.08;;;11.70;99.90;;;;;;5095120;28;20098;-73
2022/05/07 01:51:34;;;;;;;36.10;29.05;;;11.70;99.90;;;;;;5077161;28;20080;-73
2022/05/07 01:54:00;;;;;;;36.15;29.90;;;11.70;99.90;;;;;;5076980;28;20082;-74
2022/05/07 01:56:26;;;;;;;37.10;29.38;;;11.60;99.90;;;;;;5094583;28;20044;-75
2022/05/07 01:58:51;;;;;;;35.00;29.98;;;11.60;99.90;;;;;;5094612;28;20044;-74
2022/05/07 02:01:18;;;;;;;38.63;30.67;;;11.60;99.90;;;;;;5076974;28;20712;-74
2022/05/07 02:03:43;;;;;;;33.70;29.02;;;11.60;99.90;;;;;;5094567;28;20054;-76
2022/05/07 02:06:09;;;;;;;35.08;28.80;;;11.60;99.90;;;;;;5094637;28;20048;-74
2022/05/07 02:08:35;;;;;;;41.95;31.92;;;11.60;99.90;;;;;;5094456;28;20035;-73
2022/05/07 02:11:01;;;;;;;41.97;32.70;;;11.60;99.90;;;;;;5094427;28;20051;-73
2022/05/07 02:13:28;;;;;;;43.00;32.20;;;11.60;99.90;;;;;;5094295;28;20040;-75
2022/05/07 02:15:54;;;;;;;42.80;32.10;;;11.60;99.90;;;;;;5076682;28;20460;-73
2022/05/07 02:18:20;;;;;;;42.15;33.80;;;11.70;99.90;;;;;;5094398;28;20040;-75
2022/05/07 02:20:46;;;;;;;35.50;29.45;;;11.70;99.90;;;;;;5093940;28;20498;-73
2022/05/07 02:23:12;;;;;;;42.38;32.03;;;11.70;99.90;;;;;;5093628;28;20047;-73
2022/05/07 02:25:37;;;;;;;39.15;31.45;;;11.60;99.90;;;;;;5093912;28;20472;-74
2022/05/07 02:28:04;;;;;;;37.90;30.65;;;11.60;99.90;;;;;;5076280;28;20040;-73
2022/05/07 02:30:30;;;;;;;40.53;30.67;;;11.60;99.90;;;;;;5094095;28;20036;-73
2022/05/07 02:32:55;;;;;;;40.92;30.70;;;11.60;99.90;;;;;;5093850;28;20046;-73
2022/05/07 02:35:22;;;;;;;43.97;31.75;;;11.60;99.90;;;;;;5094038;28;20044;-74
2022/05/07 02:37:48;;;;;;;39.75;31.02;;;11.60;99.90;;;;;;5094030;28;20136;-74
2022/05/07 02:40:13;;;;;;;39.92;30.77;;;11.60;99.90;;;;;;5093835;28;20042;-74
2022/05/07 02:42:40;;;;;;;37.88;31.13;;;11.60;99.90;;;;;;5093699;28;20122;-72
2022/05/07 02:45:09;;;;;;;39.75;29.85;;;11.60;99.90;;;;;;5093798;28;20228;-74
2022/05/07 02:47:37;;;;;;;40.08;32.40;;;11.60;99.90;;;;;;5075986;28;20044;-75
2022/05/07 02:50:04;;;;;;;44.03;33.53;;;11.60;99.90;;;;;;5076020;28;20040;-74
2022/05/07 02:52:33;;;;;;;39.05;30.92;;;11.60;99.90;;;;;;5093553;28;20043;-73
2022/05/07 02:55:06;;;;;;;40.63;31.90;;;11.60;99.90;;;;;;5093579;28;20067;-76
2022/05/07 02:57:32;;;;;;;41.55;33.22;;;11.60;99.90;;;;;;5093311;28;20353;-73
2022/05/07 02:59:58;;;;;;;41.72;33.83;;;11.60;99.90;;;;;;5093749;28;20048;-73
2022/05/07 03:02:24;;;;;;;40.97;33.30;;;11.50;99.90;;;;;;5075384;28;20406;-75
2022/05/07 03:04:50;;;;;;;44.22;33.72;;;11.50;99.90;;;;;;5089824;28;20118;-75
2022/05/07 03:07:16;;;;;;;40.95;32.42;;;11.50;99.90;;;;;;5093313;28;20056;-73
2022/05/07 03:09:42;;;;;;;45.92;34.20;;;11.40;99.90;;;;;;5093438;28;20123;-72
2022/05/07 03:12:11;;;;;;;48.47;34.85;;;11.40;99.90;;;;;;5075543;28;20173;-73
2022/05/07 03:14:37;;;;;;;40.05;32.67;;;11.40;99.90;;;;;;5093421;28;20047;-73
2022/05/07 03:17:04;;;;;;;40.42;32.00;;;11.40;99.90;;;;;;5093263;28;20453;-72
2022/05/07 03:19:29;;;;;;;43.95;32.67;;;11.40;99.90;;;;;;5074991;28;20048;-73
2022/05/07 03:21:55;;;;;;;45.78;34.13;;;11.40;99.90;;;;;;5093173;28;20055;-73
2022/05/07 03:24:21;;;;;;;46.03;34.70;;;11.40;99.90;;;;;;5092857;28;20100;-74
2022/05/07 03:26:47;;;;;;;41.45;32.88;;;11.40;99.90;;;;;;5093011;28;20076;-73
2022/05/07 03:29:13;;;;;;;40.83;32.38;;;11.40;99.90;;;;;;5093079;28;20075;-73
2022/05/07 03:31:39;;;;;;;45.83;34.15;;;11.40;99.90;;;;;;5075419;28;20104;-74
2022/05/07 03:34:09;;;;;;;47.17;35.90;;;11.40;99.90;;;;;;5092869;28;20400;-74
2022/05/07 03:36:35;;;;;;;44.72;35.67;;;11.40;99.90;;;;;;5093006;28;20062;-74
2022/05/07 03:39:01;;;;;;;43.42;34.15;;;11.50;99.90;;;;;;5092790;28;20071;-74
2022/05/07 03:41:27;;;;;;;39.35;31.98;;;11.50;99.90;;;;;;5092925;28;20083;-74
2022/05/07 03:43:53;;;;;;;42.33;33.95;;;11.50;99.90;;;;;;5074830;28;20441;-74
2022/05/07 03:46:19;;;;;;;41.72;32.42;;;11.50;99.90;;;;;;5092477;28;20047;-74
2022/05/07 03:48:44;;;;;;;39.92;30.80;;;11.50;99.90;;;;;;5074885;28;20097;-74
2022/05/07 03:51:10;;;;;;;42.17;32.58;;;11.50;99.90;;;;;;5092590;28;20055;-74
2022/05/07 03:53:36;;;;;;;45.15;33.80;;;11.40;99.90;;;;;;5075000;28;20048;-73
2022/05/07 03:56:05;;;;;;;43.28;34.83;;;11.40;99.90;;;;;;5075090;28;20047;-73
2022/05/07 03:58:32;;;;;;;41.97;33.30;;;11.40;99.90;;;;;;5092405;28;20043;-73
2022/05/07 04:00:59;;;;;;;44.95;33.72;;;11.40;99.90;;;;;;5092794;28;20040;-72
2022/05/07 04:03:25;;;;;;;39.50;32.03;;;11.40;99.90;;;;;;5074713;28;20472;-75
2022/05/07 04:05:51;;;;;;;47.72;34.72;;;11.40;99.90;;;;;;5092501;28;20040;-74
2022/05/07 04:08:17;;;;;;;44.15;34.83;;;11.40;99.90;;;;;;5074775;28;20350;-73
2022/05/07 04:10:44;;;;;;;45.10;33.67;;;11.50;99.90;;;;;;5092544;28;20126;-74
2022/05/07 04:13:13;;;;;;;42.97;34.10;;;11.50;99.90;;;;;;5092366;28;20044;-73
2022/05/07 04:15:39;;;;;;;46.30;34.50;;;11.50;99.90;;;;;;5078049;28;20132;-75
2022/05/07 04:18:07;;;;;;;44.42;32.47;;;11.50;99.90;;;;;;5096554;28;20048;-73
2022/05/07 04:20:34;;;;;;;42.30;33.83;;;11.60;99.90;;;;;;5084285;28;20478;-73
2022/05/07 04:23:00;;;;;;;47.70;35.85;;;11.60;99.90;;;;;;5076123;28;20057;-73
2022/05/07 04:25:26;;;;;;;48.60;34.38;;;11.60;99.90;;;;;;5076493;28;20032;-73
2022/05/07 04:27:53;;;;;;;42.10;32.13;;;11.60;99.90;;;;;;5058513;28;20037;-75
2022/05/07 04:30:20;;;;;;;47.00;33.65;;;11.70;99.90;;;;;;5058566;28;20047;-74
2022/05/07 04:32:46;;;;;;;41.58;32.65;;;11.70;99.90;;;;;;5076002;28;20048;-75
2022/05/07 04:35:11;;;;;;;43.22;34.20;;;11.70;99.90;;;;;;5075934;28;20040;-73
2022/05/07 04:37:37;;;;;;;40.13;32.78;;;11.80;99.90;;;;;;5058527;28;20099;-75
2022/05/07 04:40:03;;;;;;;44.55;34.85;;;11.80;99.90;;;;;;5058322;28;20056;-74
2022/05/07 04:42:29;;;;;;;39.25;31.42;;;11.80;99.90;;;;;;5058403;28;20365;-74
2022/05/07 04:44:55;;;;;;;38.63;31.35;;;11.80;99.90;;;;;;5057938;28;20453;-75
2022/05/07 04:47:21;;;;;;;41.58;33.63;;;11.80;99.90;;;;;;5075875;28;20094;-75
2022/05/07 04:49:47;;;;;;;44.13;33.42;;;11.90;99.90;;;;;;5075646;28;20032;-74
2022/05/07 04:52:12;;;;;;;38.38;33.13;;;11.90;99.90;;;;;;5058313;28;20037;-75
2022/05/07 04:54:38;;;;;;;43.53;33.25;;;11.90;99.90;;;;;;5058113;28;20516;-75
2022/05/07 04:57:04;;;;;;;39.50;33.03;;;11.90;99.90;;;;;;5058188;28;20063;-74
2022/05/07 04:59:30;;;;;;;40.42;32.38;;;11.90;99.90;;;;;;5054534;28;20119;-74
2022/05/07 05:01:56;;;;;;;43.28;33.22;;;12.00;99.90;;;;;;5055657;28;20053;-74
2022/05/07 05:04:22;;;;;;;38.65;33.38;;;12.00;99.90;;;;;;5037488;28;20045;-73
2022/05/07 05:06:48;;;;;;;46.53;33.85;;;12.00;99.90;;;;;;5038015;28;20048;-73
2022/05/07 05:09:14;;;;;;;39.45;31.80;;;12.10;99.90;;;;;;5055396;28;20041;-75
2022/05/07 05:11:40;;;;;;;40.35;32.80;;;12.10;99.90;;;;;;5037965;28;20044;-74
2022/05/07 05:16:53;;;;;;;42.97;33.38;;;12.20;99.90;;;;;;5055201;28;20056;-74
2022/05/07 05:19:19;;;;;;;42.17;34.33;;;12.30;99.90;;;;;;5055783;28;20040;-74
2022/05/07 05:21:45;;;;;;;44.33;33.85;;;12.30;99.90;;;;;;5075107;28;20438;-75
2022/05/07 05:24:12;;;;;;;43.42;33.05;;;12.40;99.90;;;;;;5074895;28;20040;-74
2022/05/07 05:26:38;;;;;;;40.78;34.22;;;12.40;99.90;;;;;;5074188;28;20124;-73
2022/05/07 05:29:03;;;;;;;41.40;33.28;;;12.40;99.90;;;;;;5075100;28;20127;-73
2022/05/07 05:31:30;;;;;;;40.50;31.85;;;12.50;99.90;;;;;;5057618;28;20044;-73
2022/05/07 05:33:59;;;;;;;46.10;32.75;;;12.50;99.90;;;;;;5057377;28;20044;-74
2022/05/07 05:36:26;;;;;;;42.63;33.35;;;12.60;99.90;;;;;;5074962;28;20032;-73
2022/05/07 05:38:53;;;;;;;39.90;32.10;;;12.60;99.90;;;;;;5057392;28;20095;-74
2022/05/07 05:41:19;;;;;;;40.05;31.85;;;12.70;99.90;;;;;;5074727;28;20049;-74
2022/05/07 05:43:46;;;;;;;42.05;32.80;;;12.70;99.90;;;;;;5077733;28;20044;-75
2022/05/07 05:46:14;;;;;;;43.35;33.08;;;12.80;99.90;;;;;;5075108;28;20114;-76
2022/05/07 05:48:40;;;;;;;38.08;30.60;;;12.90;99.90;;;;;;5074683;28;20083;-73
2022/05/07 05:51:05;;;;;;;43.30;32.38;;;13.00;99.90;;;;;;5074787;28;20416;-73
2022/05/07 05:53:31;;;;;;;36.97;29.95;;;13.00;99.90;;;;;;5056875;28;20071;-73
2022/05/07 05:55:58;;;;;;;37.30;30.67;;;13.20;99.90;;;;;;5057079;28;20045;-74
2022/05/07 05:58:24;;;;;;;35.78;29.05;;;13.20;99.90;;;;;;5081835;28;20079;-73
2022/05/07 06:00:52;;;;;;;40.90;30.90;;;13.30;99.90;;;;;;5094617;28;20479;-74
2022/05/07 06:03:19;;;;;;;35.80;28.73;;;13.40;99.90;;;;;;5094669;28;20058;-74
2022/05/07 06:05:45;;;;;;;41.08;28.48;;;13.40;99.90;;;;;;5094597;28;20135;-73
2022/05/07 06:08:12;;;;;;;37.80;29.55;;;13.40;99.90;;;;;;5094766;28;20131;-73
2022/05/07 06:10:38;;;;;;;38.33;28.90;;;13.40;99.90;;;;;;5094459;28;20040;-75
2022/05/07 06:13:03;;;;;;;38.47;28.85;;;13.40;99.90;;;;;;5094317;28;20046;-73
2022/05/07 06:15:29;;;;;;;34.78;29.02;;;13.40;99.90;;;;;;5094348;28;20055;-73
2022/05/07 06:17:55;;;;;;;37.15;29.10;;;13.40;99.90;;;;;;5094437;28;20330;-73
2022/05/07 06:20:21;;;;;;;37.42;29.25;;;13.40;99.90;;;;;;5094228;28;20110;-73
2022/05/07 06:22:47;;;;;;;34.78;27.88;;;13.40;99.90;;;;;;5094333;28;20051;-73
2022/05/07 06:27:56;;;;;;;30.23;24.58;;;13.80;99.90;;;;;;5094262;28;20101;-73
2022/05/07 06:30:22;;;;;;;33.28;27.95;;;14.20;99.90;;;;;;5094034;28;20048;-75
2022/05/07 06:32:48;;;;;;;31.80;24.60;;;14.50;99.90;;;;;;5073504;28;20130;-75
2022/05/07 06:35:14;;;;;;;31.52;26.52;;;14.80;99.90;;;;;;5094044;28;20048;-75
2022/05/07 06:37:40;;;;;;;34.00;25.63;;;15.10;99.90;;;;;;5093219;28;20036;-75
2022/05/07 06:40:07;;;;;;;29.48;24.10;;;15.20;99.90;;;;;;5094071;28;20126;-75
2022/05/07 06:42:36;;;;;;;30.60;24.38;;;15.50;99.90;;;;;;5094065;28;20042;-75
2022/05/07 06:45:05;;;;;;;29.23;24.80;;;15.70;99.90;;;;;;5093773;28;20040;-74
2022/05/07 06:47:32;;;;;;;30.50;23.63;;;15.80;99.90;;;;;;5075949;28;20501;-72
2022/05/07 06:49:58;;;;;;;31.25;25.80;;;15.90;99.90;;;;;;5098411;28;20036;-74
2022/05/07 06:52:24;;;;;;;29.05;22.90;;;15.90;99.90;;;;;;5073876;28;20051;-76
2022/05/07 06:54:50;;;;;;;27.75;22.50;;;16.00;99.90;;;;;;5093291;28;20040;-77
2022/05/07 06:57:16;;;;;;;28.25;21.77;;;16.10;99.90;;;;;;5093392;28;20036;-74
2022/05/07 06:59:43;;;;;;;27.70;21.33;;;16.20;99.90;;;;;;5093269;28;20051;-75
2022/05/07 07:02:09;;;;;;;33.13;22.98;;;16.30;99.90;;;;;;5090758;28;20081;-76
2022/05/07 07:04:34;;;;;;;28.30;21.38;;;16.30;99.90;;;;;;5093545;28;20051;-75
2022/05/07 07:07:00;;;;;;;30.65;21.55;;;16.30;99.90;;;;;;5093350;28;20043;-73
2022/05/07 07:09:26;;;;;;;29.42;22.65;;;16.20;99.90;;;;;;5093134;28;20040;-74
2022/05/07 07:11:52;;;;;;;34.53;22.90;;;16.20;99.90;;;;;;5093034;28;20464;-74
2022/05/07 07:14:17;;;;;;;30.60;22.20;;;16.20;99.90;;;;;;5093324;28;20047;-76
2022/05/07 07:16:43;;;;;;;29.25;23.90;;;16.10;99.90;;;;;;5075441;28;20093;-73
2022/05/07 07:19:10;;;;;;;30.80;24.27;;;16.00;99.90;;;;;;5092777;28;20044;-75
2022/05/07 07:21:36;;;;;;;34.05;24.25;;;16.00;99.90;;;;;;5093116;28;20133;-73
2022/05/07 07:24:03;;;;;;;34.97;23.73;;;15.90;99.90;;;;;;5093947;28;20044;-74
2022/05/07 07:26:29;;;;;;;39.83;26.88;;;15.80;99.90;;;;;;5092722;28;20480;-74
2022/05/07 07:28:56;;;;;;;29.77;25.17;;;15.80;99.90;;;;;;5093120;28;20051;-74
2022/05/07 07:31:21;;;;;;;38.85;25.70;;;15.80;99.90;;;;;;5092987;28;20326;-72
2022/05/07 07:33:47;;;;;;;35.25;25.73;;;15.80;99.90;;;;;;5092940;28;20109;-75
2022/05/07 07:36:13;;;;;;;32.97;25.60;;;15.90;99.90;;;;;;5092766;28;20051;-76
2022/05/07 07:38:39;;;;;;;35.47;27.67;;;16.00;99.90;;;;;;5092797;28;20469;-76
2022/05/07 07:41:05;;;;;;;38.15;28.55;;;16.20;99.90;;;;;;5092631;28;20048;-74
2022/05/07 07:43:31;;;;;;;36.38;28.80;;;16.20;99.90;;;;;;5089557;28;20047;-75
2022/05/07 07:48:42;;;;;;;41.97;30.30;;;16.20;99.90;;;;;;5092516;28;20055;-73
2022/05/07 07:51:09;;;;;;;42.42;30.63;;;16.40;99.90;;;;;;5092160;28;20457;-75
2022/05/07 07:53:37;;;;;;;38.47;31.30;;;16.40;99.90;;;;;;5058246;28;20044;-74
2022/05/07 07:56:04;;;;;;;37.88;30.67;;;16.50;99.90;;;;;;5092176;28;20116;-73
2022/05/07 07:58:30;;;;;;;39.28;31.65;;;16.50;99.90;;;;;;5092153;28;20094;-74
2022/05/07 08:00:56;;;;;;;38.90;32.33;;;16.50;99.90;;;;;;5074490;28;20051;-74
2022/05/07 08:03:22;;;;;;;41.47;32.72;;;16.60;99.90;;;;;;5091997;28;20047;-75
2022/05/07 08:05:51;;;;;;;37.83;31.92;;;16.70;99.90;;;;;;5092221;28;20365;-74
2022/05/07 08:13:48;;;;;;;41.33;32.03;;;16.60;99.90;;;;;;5092298;28;20063;-74
2022/05/07 08:16:17;;;;;;;39.05;30.23;;;16.60;99.90;;;;;;5071621;28;20352;-73
2022/05/07 08:18:43;;;;;;;41.45;32.85;;;16.50;99.90;;;;;;5074760;28;20032;-75
2022/05/07 08:21:10;;;;;;;40.53;33.80;;;16.50;99.90;;;;;;5091915;28;20059;-73
2022/05/07 08:23:37;;;;;;;39.65;32.22;;;16.50;99.90;;;;;;5091829;28;20082;-75
2022/05/07 08:26:04;;;;;;;38.92;32.42;;;16.60;99.90;;;;;;5091851;28;20427;-72
2022/05/07 08:28:31;;;;;;;41.75;31.25;;;16.60;99.90;;;;;;5074381;28;20445;-74
2022/05/07 08:30:58;;;;;;;40.38;32.85;;;16.70;99.90;;;;;;5074564;28;20044;-75
2022/05/07 08:33:23;;;;;;;40.33;33.10;;;16.80;99.90;;;;;;5074821;28;20468;-73
2022/05/07 08:35:49;;;;;;;37.25;32.55;;;16.90;99.90;;;;;;5092517;28;20028;-75
2022/05/07 08:38:15;;;;;;;38.97;33.88;;;17.10;99.90;;;;;;5090321;28;20040;-74
2022/05/07 08:40:42;;;;;;;39.08;34.17;;;17.20;99.90;;;;;;5089696;28;20036;-73
2022/05/07 08:43:08;;;;;;;39.70;31.67;;;17.20;99.90;;;;;;5091886;28;20115;-72
2022/05/07 08:45:35;;;;;;;38.75;31.90;;;17.30;99.90;;;;;;5074514;28;20058;-73
2022/05/07 08:48:02;;;;;;;39.17;32.28;;;17.20;99.90;;;;;;5074476;28;20052;-76
2022/05/07 08:50:28;;;;;;;38.25;31.98;;;17.30;99.90;;;;;;5092274;28;20089;-74
2022/05/07 08:52:54;;;;;;;36.17;31.45;;;17.30;99.90;;;;;;5092114;28;20048;-76
2022/05/07 08:55:20;;;;;;;37.63;31.45;;;17.50;99.90;;;;;;5092147;28;20109;-76
2022/05/07 08:57:48;;;;;;;37.17;32.53;;;17.50;99.90;;;;;;5091659;28;20377;-74
2022/05/07 09:00:19;;;;;;;37.63;32.20;;;17.60;99.90;;;;;;5072248;28;20055;-75
2022/05/07 09:02:50;;;;;;;38.08;31.25;;;17.70;99.90;;;;;;5095628;28;20032;-75
2022/05/07 09:05:18;;;;;;;38.60;32.40;;;17.70;99.90;;;;;;5092323;28;20039;-75
2022/05/07 09:07:58;;;;;;;38.15;31.83;;;17.80;99.90;;;;;;5095281;28;20360;-74
2022/05/07 09:10:29;;;;;;;36.72;30.15;;;17.90;99.90;;;;;;5078110;28;20099;-75
2022/05/07 09:13:14;;;;;;;35.00;30.05;;;18.00;99.90;;;;;;5095454;28;20111;-75
2022/05/07 09:15:57;;;;;;;33.50;28.10;;;18.00;99.90;;;;;;5095213;28;20044;-74
2022/05/07 09:18:28;;;;;;;38.10;29.23;;;18.00;99.90;;;;;;5095489;28;20039;-74
2022/05/07 09:21:16;;;;;;;36.38;28.70;;;18.00;99.90;;;;;;5077288;28;20066;-76
2022/05/07 09:23:47;;;;;;;31.40;27.85;;;18.10;99.90;;;;;;5095120;28;20087;-74
2022/05/07 09:26:24;;;;;;;37.80;29.33;;;18.20;99.90;;;;;;5077443;28;20047;-75
2022/05/07 09:28:50;;;;;;;34.70;29.50;;;18.20;99.90;;;;;;5077288;28;20445;-73
2022/05/07 09:31:30;;;;;;;33.22;28.17;;;18.20;99.90;;;;;;5077483;28;20050;-76
2022/05/07 09:35:47;;;;;;;32.75;27.52;;;18.30;99.90;;;;;;5095021;28;20040;-75
2022/05/07 09:36:43;;;;;;;34.55;27.13;;;18.30;99.90;;;;;;5094446;28;20106;-76
2022/05/07 09:39:12;;;;;;;33.38;27.35;;;18.30;99.90;;;;;;5074192;28;20058;-75
2022/05/07 09:41:41;;;;;;;33.88;27.88;;;18.40;99.90;;;;;;5077346;28;20127;-75
2022/05/07 09:44:07;;;;;;;27.02;23.50;;;18.70;99.90;;;;;;5077155;28;20391;-76
2022/05/07 09:46:33;;;;;;;31.23;26.20;;;19.00;99.90;;;;;;5077170;28;20568;-75
2022/05/07 09:49:02;;;;;;;30.98;26.40;;;19.10;99.90;;;;;;5076872;28;20040;-75
2022/05/07 09:51:29;;;;;;;35.47;27.23;;;19.30;99.90;;;;;;5076982;28;20052;-75
2022/05/07 09:59:25;;;;;;;32.90;27.75;;;20.00;99.90;;;;;;5076775;28;20059;-76
2022/05/07 10:02:18;;;;;;;35.97;28.50;;;19.90;99.90;;;;;;5076781;28;20123;-76
2022/05/07 10:04:53;;;;;;;30.42;25.20;;;19.80;99.90;;;;;;5043816;28;20074;-75
2022/05/07 10:07:57;;;;;;;38.22;29.35;;;19.80;99.90;;;;;;5094310;28;20149;-76
2022/05/07 10:10:29;;;;;;;36.20;27.88;;;19.90;99.90;;;;;;5057345;28;20050;-74
2022/05/07 10:12:59;;;;;;;38.70;29.52;;;19.60;99.90;;;;;;5075500;28;20044;-76
2022/05/07 10:15:25;;;;;;;36.33;28.33;;;19.50;99.90;;;;;;5076605;28;20048;-74
2022/05/07 10:18:17;;;;;;;40.67;27.33;;;19.50;99.90;;;;;;5094016;28;20364;-75
2022/05/07 10:20:48;;;;;;;36.33;26.73;;;19.60;99.90;;;;;;5086074;28;20167;-76
2022/05/07 10:23:26;;;;;;;39.38;29.35;;;19.70;99.90;;;;;;5093743;28;20128;-77
2022/05/07 10:25:56;;;;;;;36.33;27.10;;;19.60;99.90;;;;;;5073398;28;20137;-74
2022/05/07 10:28:22;;;;;;;38.75;28.27;;;19.40;99.90;;;;;;5076345;28;20059;-75
2022/05/07 10:30:49;;;;;;;36.33;28.50;;;19.20;99.90;;;;;;5093806;28;20044;-75
2022/05/07 10:33:15;;;;;;;36.25;28.23;;;19.00;99.90;;;;;;5093688;28;20353;-74
2022/05/07 10:35:53;;;;;;;34.58;26.27;;;19.00;99.90;;;;;;5076138;28;20048;-75
2022/05/07 10:38:35;;;;;;;40.95;27.70;;;19.10;99.90;;;;;;5093894;28;20052;-75
2022/05/07 10:41:07;;;;;;;36.65;27.15;;;19.00;99.90;;;;;;5076184;28;20048;-75
2022/05/07 10:43:44;;;;;;;37.40;27.20;;;19.00;99.90;;;;;;5075977;28;20214;-75
2022/05/07 10:46:16;;;;;;;36.72;26.83;;;19.00;99.90;;;;;;5075849;28;20035;-75
2022/05/07 10:48:50;;;;;;;34.65;25.77;;;19.00;99.90;;;;;;5093570;28;20051;-75
2022/05/07 10:51:37;;;;;;;33.10;25.60;;;19.10;99.90;;;;;;5093381;28;20478;-77
2022/05/07 10:54:23;;;;;;;31.85;23.73;;;19.20;99.90;;;;;;5075690;28;20044;-76
2022/05/07 10:56:56;;;;;;;34.03;25.23;;;19.20;99.90;;;;;;5093451;28;20040;-75
2022/05/07 10:59:24;;;;;;;34.03;25.77;;;19.10;99.90;;;;;;5093212;28;20040;-75
2022/05/07 11:01:51;;;;;;;31.88;24.60;;;19.10;99.90;;;;;;5075760;28;20039;-76
2022/05/07 11:04:19;;;;;;;33.28;26.27;;;19.00;99.90;;;;;;5093031;28;20425;-75
2022/05/07 11:06:45;;;;;;;34.88;26.30;;;19.00;99.90;;;;;;5090038;28;20044;-75
2022/05/07 11:09:15;;;;;;;39.22;26.42;;;19.20;99.90;;;;;;5093128;28;20048;-77
2022/05/07 11:11:46;;;;;;;34.58;26.40;;;19.50;99.90;;;;;;5092942;28;20445;-74
2022/05/07 11:14:23;;;;;;;31.48;23.88;;;19.90;99.90;;;;;;5093046;28;20043;-74
2022/05/07 11:16:50;;;;;;;28.73;21.77;;;20.50;99.90;;;;;;5093073;28;20051;-74
2022/05/07 11:19:31;;;;;;;31.02;23.20;;;20.60;99.90;;;;;;5073820;28;20055;-73
2022/05/07 11:21:59;;;;;;;29.70;23.30;;;20.50;99.90;;;;;;5072733;28;20362;-76
2022/05/07 11:24:26;;;;;;;39.10;29.58;;;20.20;99.90;;;;;;5072374;28;20127;-75
2022/05/07 11:26:57;;;;;;;40.20;29.65;;;19.80;99.90;;;;;;5072614;28;20365;-75
2022/05/07 11:29:23;;;;;;;37.65;30.58;;;19.40;99.90;;;;;;5055088;28;20350;-75
2022/05/07 11:32:00;;;;;;;41.10;30.90;;;19.10;99.90;;;;;;5054934;28;20059;-75
2022/05/07 11:34:34;;;;;;;45.50;32.65;;;18.70;99.90;;;;;;5072410;28;20039;-75
2022/05/07 11:37:16;;;;;;;40.85;30.30;;;18.60;99.90;;;;;;5072214;28;20453;-74
2022/05/07 11:39:58;;;;;;;42.88;30.75;;;18.60;99.90;;;;;;5054954;28;20478;-76
2022/05/07 11:42:43;;;;;;;43.38;31.38;;;18.80;99.90;;;;;;5072093;28;20151;-75
2022/05/07 11:45:33;;;;;;;47.35;33.83;;;19.20;99.90;;;;;;5053133;28;20052;-74
2022/05/07 11:48:03;;;;;;;44.67;33.38;;;19.50;99.90;;;;;;5072763;28;20049;-75
2022/05/07 11:50:42;;;;;;;44.72;33.95;;;20.00;99.90;;;;;;5054784;28;20063;-76
2022/05/07 11:53:12;;;;;;;39.97;31.38;;;20.50;99.90;;;;;;5072253;28;20040;-76
2022/05/07 11:55:38;;;;;;;39.05;28.95;;;20.50;99.90;;;;;;5072270;28;20036;-75
2022/05/07 11:58:13;;;;;;;38.47;29.35;;;20.70;99.90;;;;;;5051204;28;20039;-76
2022/05/07 12:00:43;;;;;;;35.28;27.65;;;20.90;99.90;;;;;;5051752;28;20470;-76
2022/05/07 12:03:09;;;;;;;39.63;29.70;;;21.20;99.90;;;;;;5051789;28;20481;-76
2022/05/07 12:05:48;;;;;;;38.50;27.77;;;21.50;99.90;;;;;;5052170;28;20037;-75
2022/05/07 12:08:18;;;;;;;34.65;25.67;;;21.60;99.90;;;;;;5051821;28;20087;-76
2022/05/07 12:10:46;;;;;;;32.45;27.08;;;21.50;99.90;;;;;;5034597;28;20091;-75
2022/05/07 12:13:15;;;;;;;32.58;25.55;;;21.50;99.90;;;;;;5051726;28;20037;-77
2022/05/07 12:18:27;;;;;;;33.67;24.00;;;21.80;99.90;;;;;;5051769;28;20421;-75
2022/05/07 12:20:54;;;;;;;29.77;24.10;;;21.90;99.90;;;;;;5048723;28;20473;-75
2022/05/07 12:31:33;;;;;;;29.25;23.08;;;22.30;99.90;;;;;;5071882;28;20114;-75
2022/05/07 12:33:59;;;;;;;26.85;21.13;;;22.40;99.90;;;;;;5071668;28;20446;-76
2022/05/07 12:36:26;;;;;;;30.13;22.27;;;22.50;99.90;;;;;;5056999;28;20361;-75
2022/05/07 12:38:52;;;;;;;25.33;20.48;;;22.50;99.90;;;;;;5075921;28;20349;-76
2022/05/07 12:41:19;;;;;;;28.55;21.77;;;22.50;99.90;;;;;;5075830;28;20055;-76
2022/05/07 12:43:45;;;;;;;27.27;20.60;;;22.10;99.90;;;;;;5058270;28;20422;-75
2022/05/07 12:46:11;;;;;;;25.50;20.58;;;21.80;99.90;;;;;;5075610;28;20119;-76
2022/05/07 12:48:36;;;;;;;27.50;19.30;;;21.40;99.90;;;;;;5058193;28;20369;-76
2022/05/07 12:51:02;;;;;;;23.08;17.00;;;21.20;99.90;;;;;;5075294;28;20044;-75
2022/05/07 12:53:28;;;;;;;23.60;17.63;;;21.20;99.90;;;;;;5075747;28;20247;-75
2022/05/07 12:55:54;;;;;;;21.45;16.75;;;21.30;99.90;;;;;;5072226;28;20454;-76
2022/05/07 12:58:20;;;;;;;24.15;18.17;;;21.40;99.90;;;;;;5082096;28;20044;-76
2022/05/07 13:00:46;;;;;;;19.63;15.63;;;21.30;99.90;;;;;;5078020;28;20114;-75
2022/05/07 13:03:12;;;;;;;19.90;15.27;;;21.20;99.90;;;;;;5077789;28;20054;-76
2022/05/07 13:05:38;;;;;;;22.00;16.55;;;20.90;99.90;;;;;;5077996;28;20052;-75
2022/05/07 13:08:05;;;;;;;18.80;16.25;;;20.60;99.90;;;;;;5098223;28;20054;-75